Latest Weather Observations for Ocean Reef

IDW60801

Issued at 2:02 pm WST Tuesday 26 March 2019 (issued every 10 minutes, with the page automatically refreshed every 10 minutes)

About weather observations | Map of weather stations | Latest weather observations for WA | Other Formats
Station Details ID: 009214 Name: OCEAN REEF Lat: -31.76 Lon: 115.73 Height: 10.0 m
Data from the previous 72 hours. | See also: Recent months at Ocean Reef
Date/Time
WST
Temp
°C
App
Temp
°C
Dew
Point
°C
Rel
Hum
%
Delta-T
°C
Wind Press
QNH
hPa
Press
MSL
hPa
Rain since
9am
mm
Dir  Spd
km/h
Gust
km/h
Spd
kts
Gust
kts
26/02:00pm - - - - - E 13 19 7 10 - - -
26/01:30pm - - - - - ENE 17 28 9 15 - - -
26/01:00pm - - - - - ENE 15 26 8 14 - - -
26/12:30pm - - - - - E 20 32 11 17 - - -
26/12:00pm - - - - - ENE 19 33 10 18 - - -
26/11:30am - - - - - ENE 22 35 12 19 - - -
26/11:00am - - - - - ENE 22 33 12 18 - - -
26/10:30am - - - - - ENE 19 32 10 17 - - -
26/10:00am - - - - - NE 22 33 12 18 - - -
26/09:30am - - - - - ENE 30 37 16 20 - - -
26/09:00am - - - - - ENE 28 48 15 26 - - -
26/08:55am - - - - - ENE 30 48 16 26 - - -
26/08:30am - - - - - ENE 28 44 15 24 - - -
26/08:00am - - - - - ENE 24 33 13 18 - - -
26/07:30am - - - - - ENE 17 30 9 16 - - -
26/07:00am - - - - - E 15 28 8 15 - - -
26/06:30am - - - - - E 15 26 8 14 - - -
26/06:00am - - - - - E 17 30 9 16 - - -
26/05:30am - - - - - E 15 26 8 14 - - -
26/05:00am - - - - - E 9 17 5 9 - - -
26/04:30am - - - - - E 11 17 6 9 - - -
26/04:00am - - - - - ENE 15 24 8 13 - - -
26/03:30am - - - - - E 13 22 7 12 - - -
26/03:00am - - - - - E 13 19 7 10 - - -
26/02:30am - - - - - E 15 20 8 11 - - -
26/02:00am - - - - - E 15 20 8 11 - - -
26/01:30am - - - - - E 13 24 7 13 - - -
26/01:00am - - - - - E 13 19 7 10 - - -
26/12:30am - - - - - E 13 19 7 10 - - -
26/12:00am - - - - - E 17 26 9 14 - - -
 
Date/Time
WST
Temp
°C
App
Temp
°C
Dew
Point
°C
Rel
Hum
%
Delta-T
°C
Wind Press
QNH
hPa
Press
MSL
hPa
Rain since
9am
mm
Dir  Spd
km/h
Gust
km/h
Spd
kts
Gust
kts
25/11:30pm - - - - - E 19 33 10 18 - - -
25/11:00pm - - - - - E 9 15 5 8 - - -
25/10:30pm - - - - - E 11 15 6 8 - - -
25/10:00pm - - - - - ESE 13 19 7 10 - - -
25/09:30pm - - - - - ESE 13 17 7 9 - - -
25/09:00pm - - - - - SE 11 15 6 8 - - -
25/08:30pm - - - - - SE 11 13 6 7 - - -
25/08:00pm - - - - - ESE 15 19 8 10 - - -
25/07:30pm - - - - - ESE 13 20 7 11 - - -
25/07:00pm - - - - - ESE 13 19 7 10 - - -
25/06:30pm - - - - - ESE 11 17 6 9 - - -
25/06:00pm - - - - - ESE 17 26 9 14 - - -
25/05:30pm - - - - - ESE 19 28 10 15 - - -
25/05:00pm - - - - - ESE 17 28 9 15 - - -
25/04:30pm - - - - - E 19 30 10 16 - - -
25/04:00pm - - - - - E 17 28 9 15 - - -
25/03:30pm - - - - - E 19 30 10 16 - - -
25/03:00pm - - - - - E 19 32 10 17 - - -
25/02:30pm - - - - - ESE 20 35 11 19 - - -
25/02:00pm - - - - - ESE 20 35 11 19 - - -
25/01:30pm - - - - - E 20 33 11 18 - - -
25/01:00pm - - - - - E 24 35 13 19 - - -
25/12:30pm - - - - - E 22 33 12 18 - - -
25/12:00pm - - - - - E 22 37 12 20 - - -
25/11:30am - - - - - E 20 33 11 18 - - -
25/11:00am - - - - - E 26 39 14 21 - - -
25/10:49am - - - - - E 28 46 15 25 - - -
25/10:30am - - - - - E 24 35 13 19 - - -
25/10:00am - - - - - ENE 22 37 12 20 - - -
25/09:30am - - - - - ENE 24 41 13 22 - - -
25/09:00am - - - - - E 26 37 14 20 - - -
25/08:30am - - - - - E 24 37 13 20 - - -
25/08:00am - - - - - E 22 33 12 18 - - -
25/07:30am - - - - - E 22 33 12 18 - - -
25/07:00am - - - - - E 22 33 12 18 - - -
25/06:30am - - - - - E 19 28 10 15 - - -
25/06:00am - - - - - E 17 30 9 16 - - -
25/05:30am - - - - - ESE 13 24 7 13 - - -
25/05:00am - - - - - E 11 19 6 10 - - -
25/04:30am - - - - - E 17 30 9 16 - - -
25/04:00am - - - - - E 22 32 12 17 - - -
25/03:30am - - - - - E 30 41 16 22 - - -
25/03:00am - - - - - E 28 41 15 22 - - -
25/02:30am - - - - - E 32 44 17 24 - - -
25/02:04am - - - - - E 30 48 16 26 - - -
25/02:00am - - - - - E 32 48 17 26 - - -
25/01:30am - - - - - E 30 48 16 26 - - -
25/01:00am - - - - - E 24 35 13 19 - - -
25/12:30am - - - - - ESE 26 37 14 20 - - -
25/12:00am - - - - - ESE 22 33 12 18 - - -
 
Date/Time
WST
Temp
°C
App
Temp
°C
Dew
Point
°C
Rel
Hum
%
Delta-T
°C
Wind Press
QNH
hPa
Press
MSL
hPa
Rain since
9am
mm
Dir  Spd
km/h
Gust
km/h
Spd
kts
Gust
kts
24/11:30pm - - - - - ESE 26 41 14 22 - - -
24/11:00pm - - - - - ESE 17 26 9 14 - - -
24/10:30pm - - - - - ESE 17 26 9 14 - - -
24/10:00pm - - - - - SE 17 20 9 11 - - -
24/09:30pm - - - - - SE 15 19 8 10 - - -
24/09:00pm - - - - - SE 17 19 9 10 - - -
24/08:30pm - - - - - SE 13 15 7 8 - - -
24/08:00pm - - - - - SSE 19 28 10 15 - - -
24/07:30pm - - - - - S 32 41 17 22 - - -
24/07:00pm - - - - - S 37 44 20 24 - - -
24/06:30pm - - - - - S 37 48 20 26 - - -
24/06:00pm - - - - - S 37 46 20 25 - - -
24/05:30pm - - - - - S 35 44 19 24 - - -
24/05:00pm - - - - - S 35 44 19 24 - - -
24/04:30pm - - - - - SSW 37 44 20 24 - - -
24/04:00pm - - - - - S 37 48 20 26 - - -
24/03:30pm - - - - - SSW 37 41 20 22 - - -
24/03:00pm - - - - - SSW 35 41 19 22 - - -
24/02:30pm - - - - - SSW 32 39 17 21 - - -
24/02:00pm - - - - - SSW 32 37 17 20 - - -
24/01:30pm - - - - - SSW 33 39 18 21 - - -
24/01:00pm - - - - - SSW 32 37 17 20 - - -
24/12:30pm - - - - - SSW 26 30 14 16 - - -
24/12:00pm - - - - - SSW 26 32 14 17 - - -
24/11:30am - - - - - SSW 28 32 15 17 - - -
24/11:00am - - - - - SSW 19 28 10 15 - - -
24/10:30am - - - - - SE 15 22 8 12 - - -
24/10:00am - - - - - SE 20 28 11 15 - - -
24/09:30am - - - - - ESE 17 26 9 14 - - -
24/09:00am - - - - - ESE 17 26 9 14 - - -
24/08:30am - - - - - E 15 20 8 11 - - -
24/08:00am - - - - - ESE 13 19 7 10 - - -
24/07:30am - - - - - SE 13 17 7 9 - - -
24/07:00am - - - - - SE 13 17 7 9 - - -
24/06:30am - - - - - SE 11 15 6 8 - - -
24/06:00am - - - - - SE 13 19 7 10 - - -
24/05:30am - - - - - SSE 11 13 6 7 - - -
24/05:00am - - - - - SSE 13 17 7 9 - - -
24/04:30am - - - - - SSE 19 24 10 13 - - -
24/04:00am - - - - - SSE 13 17 7 9 - - -
24/03:30am - - - - - SSE 20 26 11 14 - - -
24/03:00am - - - - - SSE 15 19 8 10 - - -
24/02:30am - - - - - SSE 17 20 9 11 - - -
24/02:00am - - - - - SSE 20 28 11 15 - - -
24/01:30am - - - - - SSE 20 28 11 15 - - -
24/01:00am - - - - - SSE 17 20 9 11 - - -
24/12:30am - - - - - SSE 17 22 9 12 - - -
24/12:00am - - - - - SSE 15 17 8 9 - - -
 
Date/Time
WST
Temp
°C
App
Temp
°C
Dew
Point
°C
Rel
Hum
%
Delta-T
°C
Wind Press
QNH
hPa
Press
MSL
hPa
Rain since
9am
mm
Dir  Spd
km/h
Gust
km/h
Spd
kts
Gust
kts
23/11:30pm - - - - - SSE 17 20 9 11 - - -
23/11:00pm - - - - - SSE 19 26 10 14 - - -
23/10:30pm - - - - - SSE 20 26 11 14 - - -
23/10:00pm - - - - - SSE 19 26 10 14 - - -
23/09:30pm - - - - - SSE 24 32 13 17 - - -
23/09:00pm - - - - - SSE 26 35 14 19 - - -
23/08:30pm - - - - - S 37 50 20 27 - - -
23/08:00pm - - - - - S 43 54 23 29 - - -
23/07:30pm - - - - - S 43 54 23 29 - - -
23/07:00pm - - - - - S 44 54 24 29 - - -
23/06:30pm - - - - - S 44 54 24 29 - - -
23/06:00pm - - - - - S 43 52 23 28 - - -
23/05:30pm - - - - - S 44 54 24 29 - - -
23/05:00pm - - - - - S 44 54 24 29 - - -
23/04:30pm - - - - - SSW 44 54 24 29 - - -
23/04:00pm - - - - - SSW 43 52 23 28 - - -
23/03:30pm - - - - - SSW 43 50 23 27 - - -
23/03:00pm - - - - - SSW 41 50 22 27 - - -
23/02:30pm - - - - - SSW 39 46 21 25 - - -

Other formats

Comma delimited format used in spreadsheet applications
http://www.bom.gov.au/fwo/IDW60801/IDW60801.94607.axf

JavaScript Object Notation format (JSON) in row-major order
http://www.bom.gov.au/fwo/IDW60801/IDW60801.94607.json

Data quality

Most of these data are generated automatically and are frequently updated. Quality checks on data are not normally performed. It is possible for incorrect values to appear. Refer to information at About Latest Weather Observations and please check the disclaimer before using these data.